sensor_id;sensor_type;location;lat;lon;timestamp;P1;durP1;ratioP1;P2;durP2;ratioP2
79375;SDS011;68846;53.150;18.136;2023-11-21T00:02:14;10.60;;;6.30;;
79375;SDS011;68846;53.150;18.136;2023-11-21T00:04:42;9.20;;;6.00;;
79375;SDS011;68846;53.150;18.136;2023-11-21T00:07:10;9.10;;;6.10;;
79375;SDS011;68846;53.150;18.136;2023-11-21T00:09:38;11.30;;;7.00;;
79375;SDS011;68846;53.150;18.136;2023-11-21T00:12:06;9.80;;;6.20;;
79375;SDS011;68846;53.150;18.136;2023-11-21T00:14:37;9.50;;;6.50;;
79375;SDS011;68846;53.150;18.136;2023-11-21T00:17:06;11.80;;;6.20;;
79375;SDS011;68846;53.150;18.136;2023-11-21T00:19:33;13.70;;;7.60;;
79375;SDS011;68846;53.150;18.136;2023-11-21T00:22:02;14.40;;;8.70;;
79375;SDS011;68846;53.150;18.136;2023-11-21T00:24:30;12.20;;;6.70;;
79375;SDS011;68846;53.150;18.136;2023-11-21T00:26:59;12.60;;;7.50;;
79375;SDS011;68846;53.150;18.136;2023-11-21T00:29:27;11.80;;;6.80;;
79375;SDS011;68846;53.150;18.136;2023-11-21T00:31:54;12.70;;;8.10;;
79375;SDS011;68846;53.150;18.136;2023-11-21T00:34:23;11.30;;;6.80;;
79375;SDS011;68846;53.150;18.136;2023-11-21T00:37:16;8.20;;;5.20;;
79375;SDS011;68846;53.150;18.136;2023-11-21T00:39:44;10.30;;;7.00;;
79375;SDS011;68846;53.150;18.136;2023-11-21T00:42:12;8.50;;;5.80;;
79375;SDS011;68846;53.150;18.136;2023-11-21T00:44:40;8.20;;;5.10;;
79375;SDS011;68846;53.150;18.136;2023-11-21T00:47:08;7.60;;;5.20;;
79375;SDS011;68846;53.150;18.136;2023-11-21T00:49:36;11.00;;;5.80;;
79375;SDS011;68846;53.150;18.136;2023-11-21T00:52:04;11.30;;;6.30;;
79375;SDS011;68846;53.150;18.136;2023-11-21T00:54:32;10.50;;;6.60;;
79375;SDS011;68846;53.150;18.136;2023-11-21T00:57:01;12.40;;;6.10;;
79375;SDS011;68846;53.150;18.136;2023-11-21T00:59:29;12.30;;;6.70;;
79375;SDS011;68846;53.150;18.136;2023-11-21T01:01:57;10.50;;;5.70;;
79375;SDS011;68846;53.150;18.136;2023-11-21T01:04:28;10.00;;;5.40;;
79375;SDS011;68846;53.150;18.136;2023-11-21T01:06:56;12.00;;;6.30;;
79375;SDS011;68846;53.150;18.136;2023-11-21T01:09:24;7.70;;;5.10;;
79375;SDS011;68846;53.150;18.136;2023-11-21T01:11:53;9.90;;;5.50;;
79375;SDS011;68846;53.150;18.136;2023-11-21T01:14:21;8.20;;;4.50;;
79375;SDS011;68846;53.150;18.136;2023-11-21T01:16:49;10.50;;;4.90;;
79375;SDS011;68846;53.150;18.136;2023-11-21T01:19:19;8.50;;;5.30;;
79375;SDS011;68846;53.150;18.136;2023-11-21T01:21:46;9.80;;;5.70;;
79375;SDS011;68846;53.150;18.136;2023-11-21T01:24:14;10.60;;;5.70;;
79375;SDS011;68846;53.150;18.136;2023-11-21T01:26:42;11.60;;;6.60;;
79375;SDS011;68846;53.150;18.136;2023-11-21T01:29:10;13.30;;;6.80;;
79375;SDS011;68846;53.150;18.136;2023-11-21T01:31:38;12.60;;;7.20;;
79375;SDS011;68846;53.150;18.136;2023-11-21T01:34:07;12.10;;;6.80;;
79375;SDS011;68846;53.150;18.136;2023-11-21T01:36:35;14.00;;;6.70;;
79375;SDS011;68846;53.150;18.136;2023-11-21T01:39:04;11.30;;;6.20;;
79375;SDS011;68846;53.150;18.136;2023-11-21T01:41:35;11.80;;;6.60;;
79375;SDS011;68846;53.150;18.136;2023-11-21T01:44:04;10.20;;;6.40;;
79375;SDS011;68846;53.150;18.136;2023-11-21T01:46:35;12.50;;;6.70;;
79375;SDS011;68846;53.150;18.136;2023-11-21T01:49:05;14.10;;;7.00;;
79375;SDS011;68846;53.150;18.136;2023-11-21T01:51:34;10.10;;;6.30;;
79375;SDS011;68846;53.150;18.136;2023-11-21T01:54:03;13.90;;;7.50;;
79375;SDS011;68846;53.150;18.136;2023-11-21T01:56:32;11.90;;;6.30;;
79375;SDS011;68846;53.150;18.136;2023-11-21T01:59:01;12.40;;;7.20;;
79375;SDS011;68846;53.150;18.136;2023-11-21T02:01:29;15.00;;;7.20;;
79375;SDS011;68846;53.150;18.136;2023-11-21T02:03:57;15.70;;;8.30;;
79375;SDS011;68846;53.150;18.136;2023-11-21T02:06:25;12.10;;;6.80;;
79375;SDS011;68846;53.150;18.136;2023-11-21T02:08:54;13.10;;;6.90;;
79375;SDS011;68846;53.150;18.136;2023-11-21T02:11:21;13.40;;;6.90;;
79375;SDS011;68846;53.150;18.136;2023-11-21T02:13:49;12.70;;;7.50;;
79375;SDS011;68846;53.150;18.136;2023-11-21T02:16:17;14.50;;;7.60;;
79375;SDS011;68846;53.150;18.136;2023-11-21T02:18:45;12.30;;;8.00;;
79375;SDS011;68846;53.150;18.136;2023-11-21T02:21:16;12.20;;;7.10;;
79375;SDS011;68846;53.150;18.136;2023-11-21T02:23:44;13.50;;;7.60;;
79375;SDS011;68846;53.150;18.136;2023-11-21T02:26:14;11.20;;;6.80;;
79375;SDS011;68846;53.150;18.136;2023-11-21T02:28:41;10.80;;;6.60;;
79375;SDS011;68846;53.150;18.136;2023-11-21T02:31:10;11.10;;;6.30;;
79375;SDS011;68846;53.150;18.136;2023-11-21T02:33:38;11.50;;;6.50;;
79375;SDS011;68846;53.150;18.136;2023-11-21T02:36:07;15.70;;;7.90;;
79375;SDS011;68846;53.150;18.136;2023-11-21T02:38:35;14.80;;;8.70;;
79375;SDS011;68846;53.150;18.136;2023-11-21T02:41:03;14.60;;;8.50;;
79375;SDS011;68846;53.150;18.136;2023-11-21T02:43:31;15.50;;;8.20;;
79375;SDS011;68846;53.150;18.136;2023-11-21T02:45:59;13.80;;;7.00;;
79375;SDS011;68846;53.150;18.136;2023-11-21T02:48:27;12.30;;;7.60;;
79375;SDS011;68846;53.150;18.136;2023-11-21T02:50:55;13.60;;;7.40;;
79375;SDS011;68846;53.150;18.136;2023-11-21T02:53:23;11.80;;;6.50;;
79375;SDS011;68846;53.150;18.136;2023-11-21T02:55:52;12.10;;;6.70;;
79375;SDS011;68846;53.150;18.136;2023-11-21T02:58:20;12.80;;;7.20;;
79375;SDS011;68846;53.150;18.136;2023-11-21T03:00:48;10.60;;;6.80;;
79375;SDS011;68846;53.150;18.136;2023-11-21T03:03:16;12.60;;;7.00;;
79375;SDS011;68846;53.150;18.136;2023-11-21T03:05:44;11.90;;;7.20;;
79375;SDS011;68846;53.150;18.136;2023-11-21T03:08:12;16.90;;;8.90;;
79375;SDS011;68846;53.150;18.136;2023-11-21T03:10:40;14.30;;;7.70;;
79375;SDS011;68846;53.150;18.136;2023-11-21T03:13:08;12.60;;;7.40;;
79375;SDS011;68846;53.150;18.136;2023-11-21T03:15:36;14.40;;;8.60;;
79375;SDS011;68846;53.150;18.136;2023-11-21T03:18:04;16.00;;;8.70;;
79375;SDS011;68846;53.150;18.136;2023-11-21T03:20:32;16.60;;;8.70;;
79375;SDS011;68846;53.150;18.136;2023-11-21T03:23:00;17.10;;;8.30;;
79375;SDS011;68846;53.150;18.136;2023-11-21T03:25:28;14.10;;;7.40;;
79375;SDS011;68846;53.150;18.136;2023-11-21T03:27:56;15.00;;;8.10;;
79375;SDS011;68846;53.150;18.136;2023-11-21T03:30:26;13.90;;;8.90;;
79375;SDS011;68846;53.150;18.136;2023-11-21T03:32:53;14.00;;;7.30;;
79375;SDS011;68846;53.150;18.136;2023-11-21T03:35:21;14.80;;;8.30;;
79375;SDS011;68846;53.150;18.136;2023-11-21T03:37:49;15.70;;;8.40;;
79375;SDS011;68846;53.150;18.136;2023-11-21T03:40:17;14.10;;;7.60;;
79375;SDS011;68846;53.150;18.136;2023-11-21T03:42:45;15.90;;;8.20;;
79375;SDS011;68846;53.150;18.136;2023-11-21T03:45:13;18.00;;;8.50;;
79375;SDS011;68846;53.150;18.136;2023-11-21T03:47:42;19.00;;;9.10;;
79375;SDS011;68846;53.150;18.136;2023-11-21T03:50:10;19.70;;;9.40;;
79375;SDS011;68846;53.150;18.136;2023-11-21T03:52:38;17.20;;;9.20;;
79375;SDS011;68846;53.150;18.136;2023-11-21T03:55:06;15.40;;;8.80;;
79375;SDS011;68846;53.150;18.136;2023-11-21T03:57:35;18.70;;;9.20;;
79375;SDS011;68846;53.150;18.136;2023-11-21T04:00:03;17.80;;;8.60;;
79375;SDS011;68846;53.150;18.136;2023-11-21T04:02:39;15.20;;;8.70;;
79375;SDS011;68846;53.150;18.136;2023-11-21T04:05:08;15.60;;;9.20;;
79375;SDS011;68846;53.150;18.136;2023-11-21T04:07:36;20.70;;;8.80;;
79375;SDS011;68846;53.150;18.136;2023-11-21T04:10:06;18.50;;;9.30;;
79375;SDS011;68846;53.150;18.136;2023-11-21T04:12:36;17.50;;;8.30;;
79375;SDS011;68846;53.150;18.136;2023-11-21T04:15:04;18.50;;;9.20;;
79375;SDS011;68846;53.150;18.136;2023-11-21T04:17:33;18.70;;;8.00;;
79375;SDS011;68846;53.150;18.136;2023-11-21T04:20:00;18.10;;;8.80;;
79375;SDS011;68846;53.150;18.136;2023-11-21T04:22:28;18.00;;;8.60;;
79375;SDS011;68846;53.150;18.136;2023-11-21T04:24:56;17.20;;;8.10;;
79375;SDS011;68846;53.150;18.136;2023-11-21T04:27:24;17.40;;;8.10;;
79375;SDS011;68846;53.150;18.136;2023-11-21T04:29:52;16.80;;;8.50;;
79375;SDS011;68846;53.150;18.136;2023-11-21T04:32:20;13.90;;;7.10;;
79375;SDS011;68846;53.150;18.136;2023-11-21T04:34:47;16.70;;;7.70;;
79375;SDS011;68846;53.150;18.136;2023-11-21T04:37:15;16.50;;;8.50;;
79375;SDS011;68846;53.150;18.136;2023-11-21T04:39:43;14.40;;;6.90;;
79375;SDS011;68846;53.150;18.136;2023-11-21T04:42:12;13.50;;;6.40;;
79375;SDS011;68846;53.150;18.136;2023-11-21T04:44:40;14.40;;;7.00;;
79375;SDS011;68846;53.150;18.136;2023-11-21T04:47:08;15.30;;;7.70;;
79375;SDS011;68846;53.150;18.136;2023-11-21T04:49:36;16.30;;;8.30;;
79375;SDS011;68846;53.150;18.136;2023-11-21T04:52:04;16.10;;;8.00;;
79375;SDS011;68846;53.150;18.136;2023-11-21T04:54:32;21.30;;;9.60;;
79375;SDS011;68846;53.150;18.136;2023-11-21T04:57:00;19.20;;;8.90;;
79375;SDS011;68846;53.150;18.136;2023-11-21T04:59:28;18.40;;;8.60;;
79375;SDS011;68846;53.150;18.136;2023-11-21T05:01:57;13.20;;;7.40;;
79375;SDS011;68846;53.150;18.136;2023-11-21T05:04:25;17.20;;;7.70;;
79375;SDS011;68846;53.150;18.136;2023-11-21T05:06:53;15.50;;;7.50;;
79375;SDS011;68846;53.150;18.136;2023-11-21T05:09:20;14.90;;;8.00;;
79375;SDS011;68846;53.150;18.136;2023-11-21T05:11:49;15.10;;;7.40;;
79375;SDS011;68846;53.150;18.136;2023-11-21T05:14:17;13.30;;;6.70;;
79375;SDS011;68846;53.150;18.136;2023-11-21T05:16:47;17.00;;;7.30;;
79375;SDS011;68846;53.150;18.136;2023-11-21T05:19:15;14.60;;;7.00;;
79375;SDS011;68846;53.150;18.136;2023-11-21T05:21:43;14.70;;;7.40;;
79375;SDS011;68846;53.150;18.136;2023-11-21T05:24:11;18.20;;;8.20;;
79375;SDS011;68846;53.150;18.136;2023-11-21T05:26:39;20.00;;;8.80;;
79375;SDS011;68846;53.150;18.136;2023-11-21T05:29:07;13.60;;;7.10;;
79375;SDS011;68846;53.150;18.136;2023-11-21T05:31:36;15.90;;;7.50;;
79375;SDS011;68846;53.150;18.136;2023-11-21T05:34:05;17.80;;;8.50;;
79375;SDS011;68846;53.150;18.136;2023-11-21T05:36:33;16.10;;;9.10;;
79375;SDS011;68846;53.150;18.136;2023-11-21T05:39:01;14.10;;;7.10;;
79375;SDS011;68846;53.150;18.136;2023-11-21T05:41:30;15.90;;;7.70;;
79375;SDS011;68846;53.150;18.136;2023-11-21T05:43:58;15.80;;;7.80;;
79375;SDS011;68846;53.150;18.136;2023-11-21T05:46:26;15.30;;;7.00;;
79375;SDS011;68846;53.150;18.136;2023-11-21T05:48:54;13.70;;;6.70;;
79375;SDS011;68846;53.150;18.136;2023-11-21T05:51:22;15.20;;;7.90;;
79375;SDS011;68846;53.150;18.136;2023-11-21T05:53:51;14.10;;;7.50;;
79375;SDS011;68846;53.150;18.136;2023-11-21T05:56:19;16.10;;;7.50;;
79375;SDS011;68846;53.150;18.136;2023-11-21T05:58:47;19.50;;;8.40;;
79375;SDS011;68846;53.150;18.136;2023-11-21T06:01:14;19.00;;;9.30;;
79375;SDS011;68846;53.150;18.136;2023-11-21T06:03:42;22.60;;;9.40;;
79375;SDS011;68846;53.150;18.136;2023-11-21T06:06:11;16.80;;;8.10;;
79375;SDS011;68846;53.150;18.136;2023-11-21T06:08:39;13.40;;;8.60;;
79375;SDS011;68846;53.150;18.136;2023-11-21T06:11:07;16.20;;;6.80;;
79375;SDS011;68846;53.150;18.136;2023-11-21T06:13:35;17.80;;;8.20;;
79375;SDS011;68846;53.150;18.136;2023-11-21T06:16:03;14.00;;;7.70;;
79375;SDS011;68846;53.150;18.136;2023-11-21T06:18:32;17.00;;;8.60;;
79375;SDS011;68846;53.150;18.136;2023-11-21T06:21:00;18.20;;;8.20;;
79375;SDS011;68846;53.150;18.136;2023-11-21T06:23:28;12.80;;;6.60;;
79375;SDS011;68846;53.150;18.136;2023-11-21T06:25:56;15.70;;;7.50;;
79375;SDS011;68846;53.150;18.136;2023-11-21T06:28:24;16.80;;;7.90;;
79375;SDS011;68846;53.150;18.136;2023-11-21T06:30:54;19.60;;;7.60;;
79375;SDS011;68846;53.150;18.136;2023-11-21T06:33:22;19.50;;;8.80;;
79375;SDS011;68846;53.150;18.136;2023-11-21T06:35:49;17.00;;;7.30;;
79375;SDS011;68846;53.150;18.136;2023-11-21T06:38:18;16.80;;;7.80;;
79375;SDS011;68846;53.150;18.136;2023-11-21T06:40:47;15.20;;;7.80;;
79375;SDS011;68846;53.150;18.136;2023-11-21T06:43:15;14.80;;;7.40;;
79375;SDS011;68846;53.150;18.136;2023-11-21T06:45:43;18.10;;;8.20;;
79375;SDS011;68846;53.150;18.136;2023-11-21T06:48:11;15.70;;;7.60;;
79375;SDS011;68846;53.150;18.136;2023-11-21T06:50:40;16.50;;;8.40;;
79375;SDS011;68846;53.150;18.136;2023-11-21T06:53:08;14.10;;;7.20;;
79375;SDS011;68846;53.150;18.136;2023-11-21T06:55:37;13.20;;;6.70;;
79375;SDS011;68846;53.150;18.136;2023-11-21T06:58:05;12.40;;;6.00;;
79375;SDS011;68846;53.150;18.136;2023-11-21T07:00:33;13.80;;;7.10;;
79375;SDS011;68846;53.150;18.136;2023-11-21T07:03:01;15.40;;;7.20;;
79375;SDS011;68846;53.150;18.136;2023-11-21T07:05:29;17.80;;;7.40;;
79375;SDS011;68846;53.150;18.136;2023-11-21T07:07:57;13.90;;;6.90;;
79375;SDS011;68846;53.150;18.136;2023-11-21T07:10:28;16.60;;;7.30;;
79375;SDS011;68846;53.150;18.136;2023-11-21T07:12:56;15.70;;;6.60;;
79375;SDS011;68846;53.150;18.136;2023-11-21T07:15:24;11.60;;;6.10;;
79375;SDS011;68846;53.150;18.136;2023-11-21T07:17:53;13.40;;;6.30;;
79375;SDS011;68846;53.150;18.136;2023-11-21T07:20:22;13.70;;;6.20;;
79375;SDS011;68846;53.150;18.136;2023-11-21T07:22:50;13.80;;;5.20;;
79375;SDS011;68846;53.150;18.136;2023-11-21T07:25:18;10.50;;;6.10;;
79375;SDS011;68846;53.150;18.136;2023-11-21T07:27:46;13.70;;;5.20;;
79375;SDS011;68846;53.150;18.136;2023-11-21T07:30:14;10.00;;;5.00;;
79375;SDS011;68846;53.150;18.136;2023-11-21T07:32:45;10.80;;;6.10;;
79375;SDS011;68846;53.150;18.136;2023-11-21T07:35:15;10.20;;;5.00;;
79375;SDS011;68846;53.150;18.136;2023-11-21T07:37:43;11.50;;;5.30;;
79375;SDS011;68846;53.150;18.136;2023-11-21T07:40:14;8.80;;;4.70;;
79375;SDS011;68846;53.150;18.136;2023-11-21T07:42:44;9.90;;;5.60;;
79375;SDS011;68846;53.150;18.136;2023-11-21T07:45:12;10.90;;;5.70;;
79375;SDS011;68846;53.150;18.136;2023-11-21T07:47:39;10.30;;;5.50;;
79375;SDS011;68846;53.150;18.136;2023-11-21T07:50:09;7.70;;;4.70;;
79375;SDS011;68846;53.150;18.136;2023-11-21T07:52:37;11.50;;;5.30;;
79375;SDS011;68846;53.150;18.136;2023-11-21T07:55:05;12.40;;;5.50;;
79375;SDS011;68846;53.150;18.136;2023-11-21T07:57:35;13.80;;;6.00;;
79375;SDS011;68846;53.150;18.136;2023-11-21T08:00:06;9.40;;;5.20;;
79375;SDS011;68846;53.150;18.136;2023-11-21T08:02:40;9.10;;;5.50;;
79375;SDS011;68846;53.150;18.136;2023-11-21T08:05:13;10.00;;;5.20;;
79375;SDS011;68846;53.150;18.136;2023-11-21T08:07:41;9.30;;;5.10;;
79375;SDS011;68846;53.150;18.136;2023-11-21T08:10:12;9.80;;;5.10;;
79375;SDS011;68846;53.150;18.136;2023-11-21T08:12:40;9.80;;;6.00;;
79375;SDS011;68846;53.150;18.136;2023-11-21T08:15:10;8.40;;;4.60;;
79375;SDS011;68846;53.150;18.136;2023-11-21T08:17:38;10.00;;;4.30;;
79375;SDS011;68846;53.150;18.136;2023-11-21T08:20:06;12.60;;;5.40;;
79375;SDS011;68846;53.150;18.136;2023-11-21T08:22:36;11.70;;;5.30;;
79375;SDS011;68846;53.150;18.136;2023-11-21T08:25:04;15.10;;;6.60;;
79375;SDS011;68846;53.150;18.136;2023-11-21T08:27:32;10.40;;;5.70;;
79375;SDS011;68846;53.150;18.136;2023-11-21T08:30:04;9.30;;;5.40;;
79375;SDS011;68846;53.150;18.136;2023-11-21T08:32:33;9.00;;;4.90;;
79375;SDS011;68846;53.150;18.136;2023-11-21T08:35:01;9.70;;;5.50;;
79375;SDS011;68846;53.150;18.136;2023-11-21T08:37:29;9.60;;;5.30;;
79375;SDS011;68846;53.150;18.136;2023-11-21T08:39:58;7.80;;;4.60;;
79375;SDS011;68846;53.150;18.136;2023-11-21T08:42:29;8.40;;;4.50;;
79375;SDS011;68846;53.150;18.136;2023-11-21T08:44:57;9.30;;;5.00;;
79375;SDS011;68846;53.150;18.136;2023-11-21T08:47:28;10.70;;;5.10;;
79375;SDS011;68846;53.150;18.136;2023-11-21T08:49:56;10.00;;;5.30;;
79375;SDS011;68846;53.150;18.136;2023-11-21T08:52:26;11.60;;;5.30;;
79375;SDS011;68846;53.150;18.136;2023-11-21T08:54:53;8.40;;;4.80;;
79375;SDS011;68846;53.150;18.136;2023-11-21T08:57:23;8.80;;;4.60;;
79375;SDS011;68846;53.150;18.136;2023-11-21T08:59:51;9.30;;;5.10;;
79375;SDS011;68846;53.150;18.136;2023-11-21T09:02:23;9.60;;;5.00;;
79375;SDS011;68846;53.150;18.136;2023-11-21T09:04:50;12.30;;;5.00;;
79375;SDS011;68846;53.150;18.136;2023-11-21T09:07:20;12.00;;;6.10;;
79375;SDS011;68846;53.150;18.136;2023-11-21T09:09:48;10.30;;;5.50;;
79375;SDS011;68846;53.150;18.136;2023-11-21T09:12:18;10.20;;;5.40;;
79375;SDS011;68846;53.150;18.136;2023-11-21T09:14:46;10.00;;;4.80;;
79375;SDS011;68846;53.150;18.136;2023-11-21T09:17:14;9.10;;;5.20;;
79375;SDS011;68846;53.150;18.136;2023-11-21T09:19:43;14.70;;;5.90;;
79375;SDS011;68846;53.150;18.136;2023-11-21T09:22:19;12.00;;;5.40;;
79375;SDS011;68846;53.150;18.136;2023-11-21T09:24:47;10.80;;;4.80;;
79375;SDS011;68846;53.150;18.136;2023-11-21T09:27:15;11.50;;;4.90;;
79375;SDS011;68846;53.150;18.136;2023-11-21T09:29:44;10.80;;;5.10;;
79375;SDS011;68846;53.150;18.136;2023-11-21T09:32:14;10.20;;;5.30;;
79375;SDS011;68846;53.150;18.136;2023-11-21T09:34:43;9.90;;;5.80;;
79375;SDS011;68846;53.150;18.136;2023-11-21T09:37:11;10.60;;;4.70;;
79375;SDS011;68846;53.150;18.136;2023-11-21T09:39:39;13.10;;;5.70;;
79375;SDS011;68846;53.150;18.136;2023-11-21T09:42:30;11.40;;;5.60;;
79375;SDS011;68846;53.150;18.136;2023-11-21T09:45:24;11.30;;;4.80;;
79375;SDS011;68846;53.150;18.136;2023-11-21T09:47:54;9.10;;;5.40;;
79375;SDS011;68846;53.150;18.136;2023-11-21T09:50:26;10.90;;;5.60;;
79375;SDS011;68846;53.150;18.136;2023-11-21T09:55:46;9.60;;;4.70;;
79375;SDS011;68846;53.150;18.136;2023-11-21T09:58:19;11.00;;;5.20;;
79375;SDS011;68846;53.150;18.136;2023-11-21T10:00:52;9.00;;;4.70;;
79375;SDS011;68846;53.150;18.136;2023-11-21T10:03:24;10.30;;;5.60;;
79375;SDS011;68846;53.150;18.136;2023-11-21T10:05:52;9.40;;;5.20;;
79375;SDS011;68846;53.150;18.136;2023-11-21T10:08:22;8.90;;;4.30;;
79375;SDS011;68846;53.150;18.136;2023-11-21T10:10:53;10.60;;;5.70;;
79375;SDS011;68846;53.150;18.136;2023-11-21T10:13:22;10.70;;;5.50;;
79375;SDS011;68846;53.150;18.136;2023-11-21T10:15:51;16.40;;;7.20;;
79375;SDS011;68846;53.150;18.136;2023-11-21T10:18:20;9.70;;;5.20;;
79375;SDS011;68846;53.150;18.136;2023-11-21T10:20:51;12.70;;;6.10;;
79375;SDS011;68846;53.150;18.136;2023-11-21T10:23:22;14.90;;;6.50;;
79375;SDS011;68846;53.150;18.136;2023-11-21T10:25:53;10.90;;;5.90;;
79375;SDS011;68846;53.150;18.136;2023-11-21T10:28:22;9.70;;;5.80;;
79375;SDS011;68846;53.150;18.136;2023-11-21T10:30:50;10.60;;;5.90;;
79375;SDS011;68846;53.150;18.136;2023-11-21T10:33:18;11.80;;;6.20;;
79375;SDS011;68846;53.150;18.136;2023-11-21T10:35:54;10.10;;;5.20;;
79375;SDS011;68846;53.150;18.136;2023-11-21T10:38:22;11.60;;;5.60;;
79375;SDS011;68846;53.150;18.136;2023-11-21T10:40:51;11.30;;;5.10;;
79375;SDS011;68846;53.150;18.136;2023-11-21T10:43:19;9.00;;;5.50;;
79375;SDS011;68846;53.150;18.136;2023-11-21T10:45:52;8.80;;;5.00;;
79375;SDS011;68846;53.150;18.136;2023-11-21T10:48:20;9.10;;;4.90;;
79375;SDS011;68846;53.150;18.136;2023-11-21T10:50:48;10.70;;;5.30;;
79375;SDS011;68846;53.150;18.136;2023-11-21T10:53:16;11.20;;;5.60;;
79375;SDS011;68846;53.150;18.136;2023-11-21T10:55:44;9.70;;;4.30;;
79375;SDS011;68846;53.150;18.136;2023-11-21T10:58:13;9.90;;;5.50;;
79375;SDS011;68846;53.150;18.136;2023-11-21T11:00:41;11.50;;;5.50;;
79375;SDS011;68846;53.150;18.136;2023-11-21T11:03:12;12.10;;;5.50;;
79375;SDS011;68846;53.150;18.136;2023-11-21T11:05:45;9.90;;;5.40;;
79375;SDS011;68846;53.150;18.136;2023-11-21T11:08:18;14.50;;;6.30;;
79375;SDS011;68846;53.150;18.136;2023-11-21T11:10:53;9.80;;;5.60;;
79375;SDS011;68846;53.150;18.136;2023-11-21T11:13:21;11.10;;;5.90;;
79375;SDS011;68846;53.150;18.136;2023-11-21T11:15:51;11.50;;;4.80;;
79375;SDS011;68846;53.150;18.136;2023-11-21T11:21:09;9.70;;;4.70;;
79375;SDS011;68846;53.150;18.136;2023-11-21T11:27:00;9.30;;;4.80;;
79375;SDS011;68846;53.150;18.136;2023-11-21T11:38:57;9.10;;;4.50;;
79375;SDS011;68846;53.150;18.136;2023-11-21T11:41:26;7.70;;;3.80;;
79375;SDS011;68846;53.150;18.136;2023-11-21T11:43:55;9.30;;;4.00;;
79375;SDS011;68846;53.150;18.136;2023-11-21T11:46:42;12.50;;;5.40;;
79375;SDS011;68846;53.150;18.136;2023-11-21T11:49:29;9.60;;;5.00;;
79375;SDS011;68846;53.150;18.136;2023-11-21T11:52:34;10.20;;;4.70;;
79375;SDS011;68846;53.150;18.136;2023-11-21T11:55:06;9.70;;;5.20;;
79375;SDS011;68846;53.150;18.136;2023-11-21T11:57:38;9.40;;;5.30;;
79375;SDS011;68846;53.150;18.136;2023-11-21T12:00:16;9.50;;;5.00;;
79375;SDS011;68846;53.150;18.136;2023-11-21T12:03:06;8.80;;;4.90;;
79375;SDS011;68846;53.150;18.136;2023-11-21T12:05:37;7.10;;;4.40;;
79375;SDS011;68846;53.150;18.136;2023-11-21T12:08:11;9.30;;;5.10;;
79375;SDS011;68846;53.150;18.136;2023-11-21T12:10:39;9.30;;;4.90;;
79375;SDS011;68846;53.150;18.136;2023-11-21T12:13:09;10.00;;;5.20;;
79375;SDS011;68846;53.150;18.136;2023-11-21T12:15:39;7.80;;;4.40;;
79375;SDS011;68846;53.150;18.136;2023-11-21T12:18:09;9.20;;;4.90;;
79375;SDS011;68846;53.150;18.136;2023-11-21T12:20:37;10.60;;;4.80;;
79375;SDS011;68846;53.150;18.136;2023-11-21T12:23:08;10.20;;;5.70;;
79375;SDS011;68846;53.150;18.136;2023-11-21T12:25:37;8.80;;;5.20;;
79375;SDS011;68846;53.150;18.136;2023-11-21T12:28:07;8.60;;;5.00;;
79375;SDS011;68846;53.150;18.136;2023-11-21T12:30:35;9.30;;;5.10;;
79375;SDS011;68846;53.150;18.136;2023-11-21T12:33:05;10.70;;;5.50;;
79375;SDS011;68846;53.150;18.136;2023-11-21T12:35:35;11.10;;;6.80;;
79375;SDS011;68846;53.150;18.136;2023-11-21T12:38:04;10.80;;;5.30;;
79375;SDS011;68846;53.150;18.136;2023-11-21T12:40:32;8.60;;;5.40;;
79375;SDS011;68846;53.150;18.136;2023-11-21T12:43:00;10.40;;;5.00;;
79375;SDS011;68846;53.150;18.136;2023-11-21T12:45:31;9.30;;;5.40;;
79375;SDS011;68846;53.150;18.136;2023-11-21T12:48:01;10.40;;;5.00;;
79375;SDS011;68846;53.150;18.136;2023-11-21T12:50:38;9.70;;;5.30;;
79375;SDS011;68846;53.150;18.136;2023-11-21T12:53:11;8.40;;;4.60;;
79375;SDS011;68846;53.150;18.136;2023-11-21T12:55:44;10.10;;;4.50;;
79375;SDS011;68846;53.150;18.136;2023-11-21T12:58:17;8.10;;;4.60;;
79375;SDS011;68846;53.150;18.136;2023-11-21T13:00:49;7.30;;;4.10;;
79375;SDS011;68846;53.150;18.136;2023-11-21T13:03:19;12.00;;;5.10;;
79375;SDS011;68846;53.150;18.136;2023-11-21T13:05:53;11.80;;;5.10;;
79375;SDS011;68846;53.150;18.136;2023-11-21T13:08:23;8.40;;;4.50;;
79375;SDS011;68846;53.150;18.136;2023-11-21T13:10:55;10.50;;;4.20;;
79375;SDS011;68846;53.150;18.136;2023-11-21T13:13:25;8.40;;;4.50;;
79375;SDS011;68846;53.150;18.136;2023-11-21T13:15:56;10.50;;;5.30;;
79375;SDS011;68846;53.150;18.136;2023-11-21T13:18:32;9.30;;;4.30;;
79375;SDS011;68846;53.150;18.136;2023-11-21T13:21:05;8.50;;;4.20;;
79375;SDS011;68846;53.150;18.136;2023-11-21T13:23:44;8.10;;;3.90;;
79375;SDS011;68846;53.150;18.136;2023-11-21T13:26:15;9.50;;;4.60;;
79375;SDS011;68846;53.150;18.136;2023-11-21T13:28:46;8.80;;;4.60;;
79375;SDS011;68846;53.150;18.136;2023-11-21T13:31:14;7.80;;;4.30;;
79375;SDS011;68846;53.150;18.136;2023-11-21T13:33:50;9.20;;;5.30;;
79375;SDS011;68846;53.150;18.136;2023-11-21T13:36:24;9.30;;;4.30;;
79375;SDS011;68846;53.150;18.136;2023-11-21T13:38:53;7.70;;;4.00;;
79375;SDS011;68846;53.150;18.136;2023-11-21T13:41:21;6.60;;;4.00;;
79375;SDS011;68846;53.150;18.136;2023-11-21T13:43:55;8.10;;;4.20;;
79375;SDS011;68846;53.150;18.136;2023-11-21T13:46:42;6.30;;;3.20;;
79375;SDS011;68846;53.150;18.136;2023-11-21T13:49:10;7.80;;;3.80;;
79375;SDS011;68846;53.150;18.136;2023-11-21T13:51:38;7.90;;;3.80;;
79375;SDS011;68846;53.150;18.136;2023-11-21T13:54:12;6.60;;;3.40;;
79375;SDS011;68846;53.150;18.136;2023-11-21T13:56:41;6.90;;;3.30;;
79375;SDS011;68846;53.150;18.136;2023-11-21T13:59:12;9.40;;;4.30;;
79375;SDS011;68846;53.150;18.136;2023-11-21T14:01:52;7.80;;;3.90;;
79375;SDS011;68846;53.150;18.136;2023-11-21T14:04:20;7.30;;;3.50;;
79375;SDS011;68846;53.150;18.136;2023-11-21T14:06:58;7.20;;;3.80;;
79375;SDS011;68846;53.150;18.136;2023-11-21T14:09:28;8.00;;;4.20;;
79375;SDS011;68846;53.150;18.136;2023-11-21T14:12:08;7.80;;;4.50;;
79375;SDS011;68846;53.150;18.136;2023-11-21T14:14:39;8.50;;;4.60;;
79375;SDS011;68846;53.150;18.136;2023-11-21T14:17:08;9.30;;;4.40;;
79375;SDS011;68846;53.150;18.136;2023-11-21T14:19:39;11.00;;;4.40;;
79375;SDS011;68846;53.150;18.136;2023-11-21T14:22:10;9.00;;;4.70;;
79375;SDS011;68846;53.150;18.136;2023-11-21T14:24:38;8.30;;;4.20;;
79375;SDS011;68846;53.150;18.136;2023-11-21T14:27:13;8.80;;;5.00;;
79375;SDS011;68846;53.150;18.136;2023-11-21T14:29:44;8.30;;;4.00;;
79375;SDS011;68846;53.150;18.136;2023-11-21T14:32:13;9.00;;;4.10;;
79375;SDS011;68846;53.150;18.136;2023-11-21T14:34:42;7.20;;;4.60;;
79375;SDS011;68846;53.150;18.136;2023-11-21T14:37:14;7.80;;;3.80;;
79375;SDS011;68846;53.150;18.136;2023-11-21T14:39:42;8.20;;;4.70;;
79375;SDS011;68846;53.150;18.136;2023-11-21T14:42:13;8.50;;;3.70;;
79375;SDS011;68846;53.150;18.136;2023-11-21T14:44:43;7.10;;;3.60;;
79375;SDS011;68846;53.150;18.136;2023-11-21T14:47:12;11.10;;;4.50;;
79375;SDS011;68846;53.150;18.136;2023-11-21T14:49:43;7.80;;;4.00;;
79375;SDS011;68846;53.150;18.136;2023-11-21T14:52:24;9.40;;;4.70;;
79375;SDS011;68846;53.150;18.136;2023-11-21T14:55:02;10.20;;;4.00;;
79375;SDS011;68846;53.150;18.136;2023-11-21T14:58:22;9.20;;;3.70;;
79375;SDS011;68846;53.150;18.136;2023-11-21T15:00:56;7.80;;;4.60;;